sensor_id;sensor_type;location;lat;lon;timestamp;pressure;altitude;pressure_sealevel;temperature;humidity
46946;BME280;32679;40.810;14.498;2023-04-16T00:02:09;99191.78;;;9.44;100.00
46946;BME280;32679;40.810;14.498;2023-04-16T00:04:37;99187.41;;;9.43;100.00
46946;BME280;32679;40.810;14.498;2023-04-16T00:07:05;99186.94;;;9.38;100.00
46946;BME280;32679;40.810;14.498;2023-04-16T00:09:30;99190.84;;;9.33;100.00
46946;BME280;32679;40.810;14.498;2023-04-16T00:11:58;99185.66;;;9.28;100.00
46946;BME280;32679;40.810;14.498;2023-04-16T00:14:24;99192.78;;;9.29;100.00
46946;BME280;32679;40.810;14.498;2023-04-16T00:16:49;99186.81;;;9.27;100.00
46946;BME280;32679;40.810;14.498;2023-04-16T00:19:17;99185.66;;;9.28;100.00
46946;BME280;32679;40.810;14.498;2023-04-16T00:21:45;99171.00;;;9.31;100.00
46946;BME280;32679;40.810;14.498;2023-04-16T00:24:13;99175.41;;;9.36;100.00
46946;BME280;32679;40.810;14.498;2023-04-16T00:26:39;99163.56;;;9.42;100.00
46946;BME280;32679;40.810;14.498;2023-04-16T00:29:07;99165.56;;;9.42;100.00
46946;BME280;32679;40.810;14.498;2023-04-16T00:31:33;99152.81;;;9.37;100.00
46946;BME280;32679;40.810;14.498;2023-04-16T00:33:59;99138.59;;;9.42;100.00
46946;BME280;32679;40.810;14.498;2023-04-16T00:36:25;99124.69;;;9.39;100.00
46946;BME280;32679;40.810;14.498;2023-04-16T00:38:52;99117.09;;;9.36;100.00
46946;BME280;32679;40.810;14.498;2023-04-16T00:41:18;99105.22;;;9.35;100.00
46946;BME280;32679;40.810;14.498;2023-04-16T00:43:44;99105.50;;;9.27;100.00
46946;BME280;32679;40.810;14.498;2023-04-16T00:46:10;99093.25;;;9.28;100.00
46946;BME280;32679;40.810;14.498;2023-04-16T00:48:39;99085.59;;;9.17;100.00
46946;BME280;32679;40.810;14.498;2023-04-16T00:51:06;99096.59;;;9.07;100.00
46946;BME280;32679;40.810;14.498;2023-04-16T00:53:32;99105.91;;;9.25;100.00
46946;BME280;32679;40.810;14.498;2023-04-16T00:55:59;99110.66;;;9.25;100.00
46946;BME280;32679;40.810;14.498;2023-04-16T00:58:29;99103.47;;;9.20;100.00
46946;BME280;32679;40.810;14.498;2023-04-16T01:00:57;99101.47;;;9.21;100.00
46946;BME280;32679;40.810;14.498;2023-04-16T01:03:50;99090.59;;;9.05;100.00
46946;BME280;32679;40.810;14.498;2023-04-16T01:06:20;99087.06;;;9.08;100.00
46946;BME280;32679;40.810;14.498;2023-04-16T01:08:49;99074.72;;;9.02;100.00
46946;BME280;32679;40.810;14.498;2023-04-16T01:11:14;99081.13;;;9.09;100.00
46946;BME280;32679;40.810;14.498;2023-04-16T01:13:40;99068.50;;;9.12;100.00
46946;BME280;32679;40.810;14.498;2023-04-16T01:16:07;99054.97;;;9.07;100.00
46946;BME280;32679;40.810;14.498;2023-04-16T01:18:36;99040.75;;;9.12;100.00
46946;BME280;32679;40.810;14.498;2023-04-16T01:21:05;99035.66;;;9.17;100.00
46946;BME280;32679;40.810;14.498;2023-04-16T01:23:31;99029.31;;;9.21;100.00
46946;BME280;32679;40.810;14.498;2023-04-16T01:25:56;99024.22;;;9.26;100.00
46946;BME280;32679;40.810;14.498;2023-04-16T01:28:24;99039.00;;;9.37;100.00
46946;BME280;32679;40.810;14.498;2023-04-16T01:30:49;99041.81;;;9.41;100.00
46946;BME280;32679;40.810;14.498;2023-04-16T01:33:18;99054.94;;;9.44;100.00
46946;BME280;32679;40.810;14.498;2023-04-16T01:35:46;99086.41;;;9.59;100.00
46946;BME280;32679;40.810;14.498;2023-04-16T01:38:13;99099.13;;;9.63;100.00
46946;BME280;32679;40.810;14.498;2023-04-16T01:40:39;99139.53;;;9.54;100.00
46946;BME280;32679;40.810;14.498;2023-04-16T01:43:07;99136.13;;;9.34;100.00
46946;BME280;32679;40.810;14.498;2023-04-16T01:45:33;99138.28;;;9.14;100.00
46946;BME280;32679;40.810;14.498;2023-04-16T01:48:02;99132.72;;;9.14;100.00
46946;BME280;32679;40.810;14.498;2023-04-16T01:50:30;99131.88;;;9.10;100.00
46946;BME280;32679;40.810;14.498;2023-04-16T01:52:59;99127.22;;;9.17;100.00
46946;BME280;32679;40.810;14.498;2023-04-16T01:55:32;99129.63;;;9.19;100.00
46946;BME280;32679;40.810;14.498;2023-04-16T01:57:57;99117.00;;;9.25;100.00
46946;BME280;32679;40.810;14.498;2023-04-16T02:00:23;99124.91;;;9.23;100.00
46946;BME280;32679;40.810;14.498;2023-04-16T02:02:50;99119.25;;;9.16;100.00
46946;BME280;32679;40.810;14.498;2023-04-16T02:05:18;99108.66;;;9.25;100.00
46946;BME280;32679;40.810;14.498;2023-04-16T02:07:46;99103.13;;;9.25;100.00
46946;BME280;32679;40.810;14.498;2023-04-16T02:10:14;99092.41;;;9.24;100.00
46946;BME280;32679;40.810;14.498;2023-04-16T02:12:40;99091.16;;;9.21;100.00
46946;BME280;32679;40.810;14.498;2023-04-16T02:15:11;99099.50;;;9.21;100.00
46946;BME280;32679;40.810;14.498;2023-04-16T02:17:39;99096.47;;;9.33;100.00
46946;BME280;32679;40.810;14.498;2023-04-16T02:20:04;99109.25;;;9.41;100.00
46946;BME280;32679;40.810;14.498;2023-04-16T02:22:32;99121.00;;;9.28;100.00
46946;BME280;32679;40.810;14.498;2023-04-16T02:25:00;99128.94;;;9.29;100.00
46946;BME280;32679;40.810;14.498;2023-04-16T02:27:25;99131.88;;;9.10;100.00
46946;BME280;32679;40.810;14.498;2023-04-16T02:29:51;99136.19;;;9.04;100.00
46946;BME280;32679;40.810;14.498;2023-04-16T02:32:19;99138.94;;;9.00;100.00
46946;BME280;32679;40.810;14.498;2023-04-16T02:34:49;99145.97;;;8.94;100.00
46946;BME280;32679;40.810;14.498;2023-04-16T02:37:15;99137.28;;;8.96;100.00
46946;BME280;32679;40.810;14.498;2023-04-16T02:39:42;99131.88;;;8.76;100.00
46946;BME280;32679;40.810;14.498;2023-04-16T02:42:09;99137.66;;;8.64;100.00
46946;BME280;32679;40.810;14.498;2023-04-16T02:44:37;99146.78;;;8.64;100.00
46946;BME280;32679;40.810;14.498;2023-04-16T02:47:03;99143.78;;;8.50;100.00
46946;BME280;32679;40.810;14.498;2023-04-16T02:49:31;99143.41;;;8.52;100.00
46946;BME280;32679;40.810;14.498;2023-04-16T02:51:57;99146.94;;;8.49;100.00
46946;BME280;32679;40.810;14.498;2023-04-16T02:54:25;99147.06;;;8.33;100.00
46946;BME280;32679;40.810;14.498;2023-04-16T02:56:50;99161.19;;;8.24;100.00
46946;BME280;32679;40.810;14.498;2023-04-16T02:59:20;99157.88;;;8.15;100.00
46946;BME280;32679;40.810;14.498;2023-04-16T03:01:46;99147.78;;;8.03;100.00
46946;BME280;32679;40.810;14.498;2023-04-16T03:04:14;99154.38;;;7.95;100.00
46946;BME280;32679;40.810;14.498;2023-04-16T03:06:45;99155.59;;;7.98;100.00
46946;BME280;32679;40.810;14.498;2023-04-16T03:09:11;99157.94;;;7.96;100.00
46946;BME280;32679;40.810;14.498;2023-04-16T03:11:36;99142.19;;;8.00;100.00
46946;BME280;32679;40.810;14.498;2023-04-16T03:14:06;99143.34;;;7.99;100.00
46946;BME280;32679;40.810;14.498;2023-04-16T03:16:32;99136.69;;;8.03;100.00
46946;BME280;32679;40.810;14.498;2023-04-16T03:19:00;99131.91;;;8.00;100.00
46946;BME280;32679;40.810;14.498;2023-04-16T03:21:28;99129.56;;;8.02;100.00
46946;BME280;32679;40.810;14.498;2023-04-16T03:23:53;99133.88;;;8.00;100.00
46946;BME280;32679;40.810;14.498;2023-04-16T03:26:21;99122.38;;;7.98;100.00
46946;BME280;32679;40.810;14.498;2023-04-16T03:28:49;99131.94;;;8.04;100.00
46946;BME280;32679;40.810;14.498;2023-04-16T03:31:15;99126.72;;;7.99;100.00
46946;BME280;32679;40.810;14.498;2023-04-16T03:33:48;99126.53;;;8.11;100.00
46946;BME280;32679;40.810;14.498;2023-04-16T03:36:13;99121.25;;;8.02;100.00
46946;BME280;32679;40.810;14.498;2023-04-16T03:38:42;99110.56;;;8.01;100.00
46946;BME280;32679;40.810;14.498;2023-04-16T03:41:10;99110.66;;;8.08;100.00
46946;BME280;32679;40.810;14.498;2023-04-16T03:43:35;99094.88;;;8.12;100.00
46946;BME280;32679;40.810;14.498;2023-04-16T03:46:03;99093.22;;;8.07;100.00
46946;BME280;32679;40.810;14.498;2023-04-16T03:48:30;99101.94;;;8.06;100.00
46946;BME280;32679;40.810;14.498;2023-04-16T03:50:59;99096.47;;;8.13;100.00
46946;BME280;32679;40.810;14.498;2023-04-16T03:53:25;99101.38;;;8.23;100.00
46946;BME280;32679;40.810;14.498;2023-04-16T03:55:51;99092.66;;;8.21;100.00
46946;BME280;32679;40.810;14.498;2023-04-16T03:58:17;99086.75;;;8.23;100.00
46946;BME280;32679;40.810;14.498;2023-04-16T04:00:43;99092.75;;;8.28;100.00
46946;BME280;32679;40.810;14.498;2023-04-16T04:03:11;99092.34;;;8.26;100.00
46946;BME280;32679;40.810;14.498;2023-04-16T04:05:40;99095.00;;;8.19;100.00
46946;BME280;32679;40.810;14.498;2023-04-16T04:08:06;99095.75;;;8.16;100.00
46946;BME280;32679;40.810;14.498;2023-04-16T04:10:35;99106.84;;;8.16;100.00
46946;BME280;32679;40.810;14.498;2023-04-16T04:13:02;99117.91;;;8.16;100.00
46946;BME280;32679;40.810;14.498;2023-04-16T04:15:34;99114.03;;;8.21;100.00
46946;BME280;32679;40.810;14.498;2023-04-16T04:17:59;99123.50;;;8.20;100.00
46946;BME280;32679;40.810;14.498;2023-04-16T04:20:25;99121.38;;;8.36;100.00
46946;BME280;32679;40.810;14.498;2023-04-16T04:22:50;99128.38;;;8.26;100.00
46946;BME280;32679;40.810;14.498;2023-04-16T04:25:16;99133.47;;;8.24;100.00
46946;BME280;32679;40.810;14.498;2023-04-16T04:27:42;99125.91;;;8.21;100.00
46946;BME280;32679;40.810;14.498;2023-04-16T04:30:11;99136.31;;;8.28;100.00
46946;BME280;32679;40.810;14.498;2023-04-16T04:32:36;99136.25;;;8.24;100.00
46946;BME280;32679;40.810;14.498;2023-04-16T04:35:08;99128.38;;;8.26;100.00
46946;BME280;32679;40.810;14.498;2023-04-16T04:37:33;99106.78;;;8.12;100.00
46946;BME280;32679;40.810;14.498;2023-04-16T04:40:07;99122.38;;;8.24;100.00
46946;BME280;32679;40.810;14.498;2023-04-16T04:42:36;99129.16;;;8.27;100.00
46946;BME280;32679;40.810;14.498;2023-04-16T04:45:02;99137.41;;;8.23;100.00
46946;BME280;32679;40.810;14.498;2023-04-16T04:47:27;99147.28;;;8.21;100.00
46946;BME280;32679;40.810;14.498;2023-04-16T04:49:55;99132.94;;;8.15;100.00
46946;BME280;32679;40.810;14.498;2023-04-16T04:52:23;99140.13;;;8.20;100.00
46946;BME280;32679;40.810;14.498;2023-04-16T04:54:48;99140.59;;;8.25;100.00
46946;BME280;32679;40.810;14.498;2023-04-16T04:57:16;99130.69;;;8.24;100.00
46946;BME280;32679;40.810;14.498;2023-04-16T04:59:41;99116.50;;;8.26;100.00
46946;BME280;32679;40.810;14.498;2023-04-16T05:02:10;99126.75;;;8.25;100.00
46946;BME280;32679;40.810;14.498;2023-04-16T05:04:35;99134.13;;;8.40;100.00
46946;BME280;32679;40.810;14.498;2023-04-16T05:07:01;99141.81;;;8.51;100.00
46946;BME280;32679;40.810;14.498;2023-04-16T05:09:27;99138.94;;;8.44;100.00
46946;BME280;32679;40.810;14.498;2023-04-16T05:11:52;99132.69;;;8.50;100.00
46946;BME280;32679;40.810;14.498;2023-04-16T05:14:23;99138.63;;;8.49;100.00
46946;BME280;32679;40.810;14.498;2023-04-16T05:16:49;99136.59;;;8.46;100.00
46946;BME280;32679;40.810;14.498;2023-04-16T05:19:15;99138.25;;;8.50;100.00
46946;BME280;32679;40.810;14.498;2023-04-16T05:21:41;99145.50;;;8.35;100.00
46946;BME280;32679;40.810;14.498;2023-04-16T05:24:09;99151.94;;;8.39;100.00
46946;BME280;32679;40.810;14.498;2023-04-16T05:26:39;99150.78;;;8.18;100.00
46946;BME280;32679;40.810;14.498;2023-04-16T05:29:07;99163.84;;;8.17;100.00
46946;BME280;32679;40.810;14.498;2023-04-16T05:31:35;99170.25;;;8.21;100.00
46946;BME280;32679;40.810;14.498;2023-04-16T05:34:05;99159.78;;;8.11;100.00
46946;BME280;32679;40.810;14.498;2023-04-16T05:36:33;99163.06;;;8.17;100.00
46946;BME280;32679;40.810;14.498;2023-04-16T05:38:59;99171.75;;;8.15;100.00
46946;BME280;32679;40.810;14.498;2023-04-16T05:41:24;99163.84;;;8.17;100.00
46946;BME280;32679;40.810;14.498;2023-04-16T05:43:51;99170.66;;;8.23;100.00
46946;BME280;32679;40.810;14.498;2023-04-16T05:46:19;99163.09;;;8.20;100.00
46946;BME280;32679;40.810;14.498;2023-04-16T05:48:48;99154.41;;;8.22;100.00
46946;BME280;32679;40.810;14.498;2023-04-16T05:51:19;99156.09;;;8.26;100.00
46946;BME280;32679;40.810;14.498;2023-04-16T05:53:49;99168.88;;;8.34;100.00
46946;BME280;32679;40.810;14.498;2023-04-16T05:56:17;99164.22;;;8.38;100.00
46946;BME280;32679;40.810;14.498;2023-04-16T05:58:46;99164.22;;;8.38;100.00
46946;BME280;32679;40.810;14.498;2023-04-16T06:01:17;99151.56;;;8.41;100.00
46946;BME280;32679;40.810;14.498;2023-04-16T06:03:42;99170.63;;;8.43;100.00
46946;BME280;32679;40.810;14.498;2023-04-16T06:06:09;99161.97;;;8.48;100.00
46946;BME280;32679;40.810;14.498;2023-04-16T06:08:37;99172.31;;;8.51;100.00
46946;BME280;32679;40.810;14.498;2023-04-16T06:11:05;99180.31;;;8.56;100.00
46946;BME280;32679;40.810;14.498;2023-04-16T06:13:31;99176.34;;;8.57;100.00
46946;BME280;32679;40.810;14.498;2023-04-16T06:16:04;99166.56;;;8.63;100.00
46946;BME280;32679;40.810;14.498;2023-04-16T06:18:29;99155.88;;;8.65;100.00
46946;BME280;32679;40.810;14.498;2023-04-16T06:20:57;99157.88;;;8.64;100.00
46946;BME280;32679;40.810;14.498;2023-04-16T06:23:23;99157.56;;;8.73;100.00
46946;BME280;32679;40.810;14.498;2023-04-16T06:25:51;99143.69;;;8.73;100.00
46946;BME280;32679;40.810;14.498;2023-04-16T06:28:20;99154.47;;;8.78;100.00
46946;BME280;32679;40.810;14.498;2023-04-16T06:30:46;99154.91;;;8.80;100.00
46946;BME280;32679;40.810;14.498;2023-04-16T06:33:14;99156.91;;;8.83;100.00
46946;BME280;32679;40.810;14.498;2023-04-16T06:35:42;99159.28;;;8.81;100.00
46946;BME280;32679;40.810;14.498;2023-04-16T06:38:10;99157.06;;;8.94;100.00
46946;BME280;32679;40.810;14.498;2023-04-16T06:40:41;99140.88;;;9.00;100.00
46946;BME280;32679;40.810;14.498;2023-04-16T06:43:06;99142.56;;;9.08;100.00
46946;BME280;32679;40.810;14.498;2023-04-16T06:45:34;99140.72;;;9.19;100.00
46946;BME280;32679;40.810;14.498;2023-04-16T06:48:00;99133.81;;;9.39;100.00
46946;BME280;32679;40.810;14.498;2023-04-16T06:50:31;99140.31;;;9.54;100.00
46946;BME280;32679;40.810;14.498;2023-04-16T06:53:00;99124.13;;;9.60;100.00
46946;BME280;32679;40.810;14.498;2023-04-16T06:55:28;99129.38;;;9.72;100.00
46946;BME280;32679;40.810;14.498;2023-04-16T06:57:56;99115.22;;;9.88;100.00
46946;BME280;32679;40.810;14.498;2023-04-16T07:00:21;99118.06;;;9.91;100.00
46946;BME280;32679;40.810;14.498;2023-04-16T07:02:49;99107.75;;;9.95;100.00
46946;BME280;32679;40.810;14.498;2023-04-16T07:05:15;99104.69;;;10.08;100.00
46946;BME280;32679;40.810;14.498;2023-04-16T07:07:40;99109.38;;;9.96;100.00
46946;BME280;32679;40.810;14.498;2023-04-16T07:10:09;99104.16;;;9.91;100.00
46946;BME280;32679;40.810;14.498;2023-04-16T07:12:37;99101.09;;;10.07;100.00
46946;BME280;32679;40.810;14.498;2023-04-16T07:15:14;99102.69;;;10.08;100.00
46946;BME280;32679;40.810;14.498;2023-04-16T07:17:40;99103.56;;;10.19;100.00
46946;BME280;32679;40.810;14.498;2023-04-16T07:20:09;99106.81;;;10.25;100.00
46946;BME280;32679;40.810;14.498;2023-04-16T07:22:34;99100.50;;;10.28;100.00
46946;BME280;32679;40.810;14.498;2023-04-16T07:25:06;99101.41;;;10.50;100.00
46946;BME280;32679;40.810;14.498;2023-04-16T07:27:32;99102.59;;;10.49;100.00
46946;BME280;32679;40.810;14.498;2023-04-16T07:29:57;99114.09;;;10.47;100.00
46946;BME280;32679;40.810;14.498;2023-04-16T07:32:23;99104.75;;;10.22;100.00
46946;BME280;32679;40.810;14.498;2023-04-16T07:34:49;99109.19;;;10.27;100.00
46946;BME280;32679;40.810;14.498;2023-04-16T07:37:17;99111.28;;;10.40;100.00
46946;BME280;32679;40.810;14.498;2023-04-16T07:39:43;99115.66;;;10.41;100.00
46946;BME280;32679;40.810;14.498;2023-04-16T07:42:13;99124.09;;;10.56;100.00
46946;BME280;32679;40.810;14.498;2023-04-16T07:44:44;99126.00;;;10.41;100.00
46946;BME280;32679;40.810;14.498;2023-04-16T07:47:13;99118.75;;;10.33;100.00
46946;BME280;32679;40.810;14.498;2023-04-16T07:49:43;99130.31;;;10.35;99.98
46946;BME280;32679;40.810;14.498;2023-04-16T07:52:09;99123.53;;;10.32;100.00
46946;BME280;32679;40.810;14.498;2023-04-16T07:54:35;99133.09;;;10.38;99.75
46946;BME280;32679;40.810;14.498;2023-04-16T07:57:03;99131.88;;;10.32;99.74
46946;BME280;32679;40.810;14.498;2023-04-16T07:59:28;99125.41;;;10.21;99.67
46946;BME280;32679;40.810;14.498;2023-04-16T08:01:54;99130.56;;;10.19;100.00
46946;BME280;32679;40.810;14.498;2023-04-16T08:04:22;99146.94;;;9.83;100.00
46946;BME280;32679;40.810;14.498;2023-04-16T08:06:53;99147.72;;;9.80;100.00
46946;BME280;32679;40.810;14.498;2023-04-16T08:09:22;99146.19;;;9.86;100.00
46946;BME280;32679;40.810;14.498;2023-04-16T08:11:48;99143.38;;;9.83;100.00
46946;BME280;32679;40.810;14.498;2023-04-16T08:14:15;99149.75;;;9.87;100.00
46946;BME280;32679;40.810;14.498;2023-04-16T08:16:41;99151.84;;;10.01;100.00
46946;BME280;32679;40.810;14.498;2023-04-16T08:19:06;99151.19;;;9.70;100.00
46946;BME280;32679;40.810;14.498;2023-04-16T08:21:35;99155.66;;;9.82;100.00
46946;BME280;32679;40.810;14.498;2023-04-16T08:24:01;99145.31;;;9.79;100.00
46946;BME280;32679;40.810;14.498;2023-04-16T08:26:29;99154.16;;;9.91;100.00
46946;BME280;32679;40.810;14.498;2023-04-16T08:29:04;99149.41;;;9.95;100.00
46946;BME280;32679;40.810;14.498;2023-04-16T08:31:29;99157.53;;;10.15;100.00
46946;BME280;32679;40.810;14.498;2023-04-16T08:33:59;99147.59;;;10.14;100.00
46946;BME280;32679;40.810;14.498;2023-04-16T08:36:26;99160.03;;;10.27;100.00
46946;BME280;32679;40.810;14.498;2023-04-16T08:38:54;99151.41;;;10.39;100.00
46946;BME280;32679;40.810;14.498;2023-04-16T08:41:23;99146.69;;;10.47;100.00
46946;BME280;32679;40.810;14.498;2023-04-16T08:43:54;99153.03;;;10.44;100.00
46946;BME280;32679;40.810;14.498;2023-04-16T08:46:23;99153.84;;;10.44;100.00
46946;BME280;32679;40.810;14.498;2023-04-16T08:48:56;99156.28;;;10.57;100.00
46946;BME280;32679;40.810;14.498;2023-04-16T08:51:24;99164.06;;;10.33;100.00
46946;BME280;32679;40.810;14.498;2023-04-16T08:54:04;99163.03;;;10.56;100.00
46946;BME280;32679;40.810;14.498;2023-04-16T08:56:35;99169.00;;;10.58;100.00
46946;BME280;32679;40.810;14.498;2023-04-16T08:59:04;99167.00;;;10.55;98.30
46946;BME280;32679;40.810;14.498;2023-04-16T09:01:34;99173.09;;;10.78;98.40
46946;BME280;32679;40.810;14.498;2023-04-16T09:04:05;99169.28;;;11.04;100.00
46946;BME280;32679;40.810;14.498;2023-04-16T09:06:31;99165.22;;;10.87;93.54
46946;BME280;32679;40.810;14.498;2023-04-16T09:09:00;99161.25;;;10.92;94.39
46946;BME280;32679;40.810;14.498;2023-04-16T09:11:28;99172.53;;;11.24;97.23
46946;BME280;32679;40.810;14.498;2023-04-16T09:13:55;99176.09;;;11.21;93.57
46946;BME280;32679;40.810;14.498;2023-04-16T09:16:22;99169.38;;;11.40;91.29
46946;BME280;32679;40.810;14.498;2023-04-16T09:18:49;99169.47;;;11.58;90.79
46946;BME280;32679;40.810;14.498;2023-04-16T09:21:18;99171.88;;;11.77;90.45
46946;BME280;32679;40.810;14.498;2023-04-16T09:23:46;99168.34;;;11.84;90.05
46946;BME280;32679;40.810;14.498;2023-04-16T09:26:15;99165.97;;;11.89;90.32
46946;BME280;32679;40.810;14.498;2023-04-16T09:28:45;99179.91;;;11.89;88.29
46946;BME280;32679;40.810;14.498;2023-04-16T09:31:18;99169.56;;;12.07;88.34
46946;BME280;32679;40.810;14.498;2023-04-16T09:34:06;99175.94;;;12.12;86.36
46946;BME280;32679;40.810;14.498;2023-04-16T09:36:32;99177.53;;;12.23;84.90
46946;BME280;32679;40.810;14.498;2023-04-16T09:38:59;99177.91;;;11.86;86.10
46946;BME280;32679;40.810;14.498;2023-04-16T09:41:32;99176.59;;;11.48;87.42
46946;BME280;32679;40.810;14.498;2023-04-16T09:44:03;99171.03;;;11.51;88.47
46946;BME280;32679;40.810;14.498;2023-04-16T09:46:34;99185.00;;;11.62;89.84
46946;BME280;32679;40.810;14.498;2023-04-16T09:49:14;99186.06;;;11.25;91.11
46946;BME280;32679;40.810;14.498;2023-04-16T09:51:41;99190.13;;;11.49;91.45
46946;BME280;32679;40.810;14.498;2023-04-16T09:54:09;99180.97;;;11.45;90.93
46946;BME280;32679;40.810;14.498;2023-04-16T09:56:43;99183.38;;;11.47;90.60
46946;BME280;32679;40.810;14.498;2023-04-16T09:59:20;99188.53;;;11.55;91.83
46946;BME280;32679;40.810;14.498;2023-04-16T10:01:49;99186.19;;;11.58;92.62
46946;BME280;32679;40.810;14.498;2023-04-16T10:04:17;99192.19;;;11.67;91.75
46946;BME280;32679;40.810;14.498;2023-04-16T10:06:50;99186.19;;;11.65;91.90
46946;BME280;32679;40.810;14.498;2023-04-16T10:09:31;99186.22;;;11.72;95.79
46946;BME280;32679;40.810;14.498;2023-04-16T10:11:59;99197.78;;;11.81;94.16
46946;BME280;32679;40.810;14.498;2023-04-16T10:14:25;99195.44;;;11.83;91.90
46946;BME280;32679;40.810;14.498;2023-04-16T10:16:57;99190.22;;;11.82;91.49
46946;BME280;32679;40.810;14.498;2023-04-16T10:19:24;99204.19;;;11.92;93.75
46946;BME280;32679;40.810;14.498;2023-04-16T10:21:49;99167.19;;;11.88;94.20
46946;BME280;32679;40.810;14.498;2023-04-16T10:24:17;99191.09;;;12.18;94.28
46946;BME280;32679;40.810;14.498;2023-04-16T10:26:43;99196.25;;;12.30;94.23
46946;BME280;32679;40.810;14.498;2023-04-16T10:29:11;99192.28;;;12.27;93.23
46946;BME280;32679;40.810;14.498;2023-04-16T10:31:40;99184.69;;;12.35;93.24
46946;BME280;32679;40.810;14.498;2023-04-16T10:34:08;99197.47;;;12.29;90.75
46946;BME280;32679;40.810;14.498;2023-04-16T10:36:37;99172.38;;;12.22;92.23
46946;BME280;32679;40.810;14.498;2023-04-16T10:39:11;99190.69;;;12.37;93.24
46946;BME280;32679;40.810;14.498;2023-04-16T10:41:41;99161.63;;;12.20;92.75
46946;BME280;32679;40.810;14.498;2023-04-16T10:44:08;99185.50;;;12.36;92.29
46946;BME280;32679;40.810;14.498;2023-04-16T10:46:39;99184.72;;;12.42;92.12
46946;BME280;32679;40.810;14.498;2023-04-16T10:49:13;99186.72;;;12.27;90.45
46946;BME280;32679;40.810;14.498;2023-04-16T10:51:39;99190.28;;;11.99;92.90
46946;BME280;32679;40.810;14.498;2023-04-16T10:56:35;99184.69;;;11.96;90.00
46946;BME280;32679;40.810;14.498;2023-04-16T10:59:05;99186.69;;;11.88;88.31
46946;BME280;32679;40.810;14.498;2023-04-16T11:01:40;99186.16;;;11.54;90.87
46946;BME280;32679;40.810;14.498;2023-04-16T11:04:33;99179.03;;;11.57;92.82
46946;BME280;32679;40.810;14.498;2023-04-16T11:07:19;99180.19;;;11.52;93.36
46946;BME280;32679;40.810;14.498;2023-04-16T11:09:56;99178.22;;;11.60;92.56
46946;BME280;32679;40.810;14.498;2023-04-16T11:12:43;99182.22;;;11.62;93.66
46946;BME280;32679;40.810;14.498;2023-04-16T11:15:15;99183.03;;;11.80;92.59
46946;BME280;32679;40.810;14.498;2023-04-16T11:17:48;99180.69;;;11.83;91.99
46946;BME280;32679;40.810;14.498;2023-04-16T11:20:22;99179.84;;;11.75;90.00
46946;BME280;32679;40.810;14.498;2023-04-16T11:22:49;99177.91;;;11.86;90.73
46946;BME280;32679;40.810;14.498;2023-04-16T11:25:28;99183.03;;;11.80;89.43
46946;BME280;32679;40.810;14.498;2023-04-16T11:27:54;99181.44;;;11.76;91.79
46946;BME280;32679;40.810;14.498;2023-04-16T11:30:31;99183.03;;;11.77;90.81
46946;BME280;32679;40.810;14.498;2023-04-16T11:32:59;99193.34;;;11.51;91.54
46946;BME280;32679;40.810;14.498;2023-04-16T11:35:26;99188.00;;;11.14;97.31
46946;BME280;32679;40.810;14.498;2023-04-16T11:37:55;99193.94;;;11.13;97.75
46946;BME280;32679;40.810;14.498;2023-04-16T11:40:21;99203.00;;;10.95;99.93
46946;BME280;32679;40.810;14.498;2023-04-16T11:42:47;99194.53;;;10.74;99.80
46946;BME280;32679;40.810;14.498;2023-04-16T11:45:17;99202.06;;;10.70;100.00
46946;BME280;32679;40.810;14.498;2023-04-16T11:47:45;99204.81;;;10.63;100.00
46946;BME280;32679;40.810;14.498;2023-04-16T11:50:24;99211.66;;;10.76;100.00
46946;BME280;32679;40.810;14.498;2023-04-16T11:52:52;99205.53;;;10.53;100.00
46946;BME280;32679;40.810;14.498;2023-04-16T11:55:18;99180.63;;;10.22;100.00
46946;BME280;32679;40.810;14.498;2023-04-16T11:57:44;99209.38;;;10.37;100.00
46946;BME280;32679;40.810;14.498;2023-04-16T12:00:14;99222.97;;;10.46;100.00
46946;BME280;32679;40.810;14.498;2023-04-16T12:02:42;99219.66;;;10.33;100.00
46946;BME280;32679;40.810;14.498;2023-04-16T12:05:27;99186.72;;;9.94;100.00
46946;BME280;32679;40.810;14.498;2023-04-16T12:07:53;99188.88;;;10.12;100.00
46946;BME280;32679;40.810;14.498;2023-04-16T12:10:21;99186.19;;;10.22;100.00
46946;BME280;32679;40.810;14.498;2023-04-16T12:12:51;99178.22;;;10.21;100.00
46946;BME280;32679;40.810;14.498;2023-04-16T12:15:19;99180.72;;;10.33;100.00
46946;BME280;32679;40.810;14.498;2023-04-16T12:17:45;99170.41;;;10.30;100.00
46946;BME280;32679;40.810;14.498;2023-04-16T12:20:16;99176.38;;;10.32;100.00
46946;BME280;32679;40.810;14.498;2023-04-16T12:22:46;99191.72;;;10.19;100.00
46946;BME280;32679;40.810;14.498;2023-04-16T12:25:16;99203.59;;;10.16;100.00
46946;BME280;32679;40.810;14.498;2023-04-16T12:27:53;99217.41;;;10.05;100.00
46946;BME280;32679;40.810;14.498;2023-04-16T12:30:24;99220.16;;;10.02;100.00
46946;BME280;32679;40.810;14.498;2023-04-16T12:33:13;99232.56;;;9.74;100.00
46946;BME280;32679;40.810;14.498;2023-04-16T12:35:41;99232.56;;;9.40;100.00
46946;BME280;32679;40.810;14.498;2023-04-16T12:38:07;99235.22;;;9.30;100.00
46946;BME280;32679;40.810;14.498;2023-04-16T12:40:36;99238.13;;;9.40;100.00
46946;BME280;32679;40.810;14.498;2023-04-16T12:43:05;99240.72;;;9.26;100.00
46946;BME280;32679;40.810;14.498;2023-04-16T12:45:31;99236.25;;;9.18;100.00
46946;BME280;32679;40.810;14.498;2023-04-16T12:47:56;99230.13;;;9.05;100.00
46946;BME280;32679;40.810;14.498;2023-04-16T12:50:25;99237.06;;;9.18;100.00
46946;BME280;32679;40.810;14.498;2023-04-16T12:52:53;99227.16;;;9.21;100.00
46946;BME280;32679;40.810;14.498;2023-04-16T12:55:19;99251.72;;;9.19;100.00
46946;BME280;32679;40.810;14.498;2023-04-16T12:57:50;99250.72;;;9.04;100.00